sensor_id;sensor_type;location;lat;lon;timestamp;temperature;humidity
7016;DHT22;3548;48.402;9.990;2023-02-23T00:00:25;7.60;99.90
7016;DHT22;3548;48.402;9.990;2023-02-23T00:02:57;7.60;99.90
7016;DHT22;3548;48.402;9.990;2023-02-23T00:05:27;7.60;99.90
7016;DHT22;3548;48.402;9.990;2023-02-23T00:07:53;7.60;99.90
7016;DHT22;3548;48.402;9.990;2023-02-23T00:10:19;7.60;99.90
7016;DHT22;3548;48.402;9.990;2023-02-23T00:12:46;7.60;99.90
7016;DHT22;3548;48.402;9.990;2023-02-23T00:15:14;7.50;99.90
7016;DHT22;3548;48.402;9.990;2023-02-23T00:17:40;7.60;99.90
7016;DHT22;3548;48.402;9.990;2023-02-23T00:20:08;7.60;99.90
7016;DHT22;3548;48.402;9.990;2023-02-23T00:22:38;7.60;99.90
7016;DHT22;3548;48.402;9.990;2023-02-23T00:25:06;7.60;99.90
7016;DHT22;3548;48.402;9.990;2023-02-23T00:27:34;7.60;99.90
7016;DHT22;3548;48.402;9.990;2023-02-23T00:30:01;7.60;99.90
7016;DHT22;3548;48.402;9.990;2023-02-23T00:32:26;7.70;99.90
7016;DHT22;3548;48.402;9.990;2023-02-23T00:34:52;7.60;99.90
7016;DHT22;3548;48.402;9.990;2023-02-23T00:37:18;7.60;99.90
7016;DHT22;3548;48.402;9.990;2023-02-23T00:39:44;7.50;99.90
7016;DHT22;3548;48.402;9.990;2023-02-23T00:42:11;7.50;99.90
7016;DHT22;3548;48.402;9.990;2023-02-23T00:44:38;7.50;99.90
7016;DHT22;3548;48.402;9.990;2023-02-23T00:47:05;7.40;99.90
7016;DHT22;3548;48.402;9.990;2023-02-23T00:49:31;7.40;99.90
7016;DHT22;3548;48.402;9.990;2023-02-23T00:51:57;7.30;99.90
7016;DHT22;3548;48.402;9.990;2023-02-23T00:54:23;7.30;99.90
7016;DHT22;3548;48.402;9.990;2023-02-23T00:56:49;7.20;99.90
7016;DHT22;3548;48.402;9.990;2023-02-23T00:59:14;7.20;99.90
7016;DHT22;3548;48.402;9.990;2023-02-23T01:01:41;7.20;99.90
7016;DHT22;3548;48.402;9.990;2023-02-23T01:04:07;7.20;99.90
7016;DHT22;3548;48.402;9.990;2023-02-23T01:06:34;7.20;99.90
7016;DHT22;3548;48.402;9.990;2023-02-23T01:09:09;7.20;99.90
7016;DHT22;3548;48.402;9.990;2023-02-23T01:11:35;7.20;99.90
7016;DHT22;3548;48.402;9.990;2023-02-23T01:14:01;7.20;99.90
7016;DHT22;3548;48.402;9.990;2023-02-23T01:16:30;7.20;99.90
7016;DHT22;3548;48.402;9.990;2023-02-23T01:19:01;7.20;99.90
7016;DHT22;3548;48.402;9.990;2023-02-23T01:21:37;7.20;99.90
7016;DHT22;3548;48.402;9.990;2023-02-23T01:24:03;7.10;99.90
7016;DHT22;3548;48.402;9.990;2023-02-23T01:26:32;7.20;99.90
7016;DHT22;3548;48.402;9.990;2023-02-23T01:29:04;7.20;99.90
7016;DHT22;3548;48.402;9.990;2023-02-23T01:31:33;7.20;99.90
7016;DHT22;3548;48.402;9.990;2023-02-23T01:34:01;7.20;99.90
7016;DHT22;3548;48.402;9.990;2023-02-23T01:36:28;7.20;99.90
7016;DHT22;3548;48.402;9.990;2023-02-23T01:38:55;7.20;99.90
7016;DHT22;3548;48.402;9.990;2023-02-23T01:41:25;7.20;99.90
7016;DHT22;3548;48.402;9.990;2023-02-23T01:46:44;7.30;99.90
7016;DHT22;3548;48.402;9.990;2023-02-23T01:49:14;7.40;99.90
7016;DHT22;3548;48.402;9.990;2023-02-23T01:51:45;7.40;99.90
7016;DHT22;3548;48.402;9.990;2023-02-23T01:54:16;7.40;99.90
7016;DHT22;3548;48.402;9.990;2023-02-23T01:56:45;7.30;99.90
7016;DHT22;3548;48.402;9.990;2023-02-23T01:59:15;7.30;99.90
7016;DHT22;3548;48.402;9.990;2023-02-23T02:01:42;7.30;99.90
7016;DHT22;3548;48.402;9.990;2023-02-23T02:04:09;7.30;99.90
7016;DHT22;3548;48.402;9.990;2023-02-23T02:06:40;7.30;99.90
7016;DHT22;3548;48.402;9.990;2023-02-23T02:09:11;7.30;99.90
7016;DHT22;3548;48.402;9.990;2023-02-23T02:11:41;7.30;99.90
7016;DHT22;3548;48.402;9.990;2023-02-23T02:14:16;7.30;99.90
7016;DHT22;3548;48.402;9.990;2023-02-23T02:17:05;7.30;99.90
7016;DHT22;3548;48.402;9.990;2023-02-23T02:22:43;7.30;99.90
7016;DHT22;3548;48.402;9.990;2023-02-23T02:26:32;7.30;99.90
7016;DHT22;3548;48.402;9.990;2023-02-23T02:31:36;7.40;99.90
7016;DHT22;3548;48.402;9.990;2023-02-23T02:39:39;7.50;99.90
7016;DHT22;3548;48.402;9.990;2023-02-23T02:45:00;7.40;99.90
7016;DHT22;3548;48.402;9.990;2023-02-23T02:47:36;7.50;99.90
7016;DHT22;3548;48.402;9.990;2023-02-23T02:50:07;7.40;99.90
7016;DHT22;3548;48.402;9.990;2023-02-23T02:52:47;7.40;99.90
7016;DHT22;3548;48.402;9.990;2023-02-23T02:55:19;7.40;99.90
7016;DHT22;3548;48.402;9.990;2023-02-23T02:57:49;7.40;99.90
7016;DHT22;3548;48.402;9.990;2023-02-23T03:00:27;7.40;99.90
7016;DHT22;3548;48.402;9.990;2023-02-23T03:03:41;7.40;99.90
7016;DHT22;3548;48.402;9.990;2023-02-23T03:06:30;7.40;99.90
7016;DHT22;3548;48.402;9.990;2023-02-23T03:09:22;7.40;99.90
7016;DHT22;3548;48.402;9.990;2023-02-23T03:21:35;7.30;99.90
7016;DHT22;3548;48.402;9.990;2023-02-23T03:24:40;7.40;99.90
7016;DHT22;3548;48.402;9.990;2023-02-23T03:30:19;7.40;99.90
7016;DHT22;3548;48.402;9.990;2023-02-23T03:33:14;7.50;99.90
7016;DHT22;3548;48.402;9.990;2023-02-23T03:36:07;7.50;99.90
7016;DHT22;3548;48.402;9.990;2023-02-23T03:39:44;7.50;99.90
7016;DHT22;3548;48.402;9.990;2023-02-23T03:42:12;7.50;99.90
7016;DHT22;3548;48.402;9.990;2023-02-23T03:45:03;7.60;99.90
7016;DHT22;3548;48.402;9.990;2023-02-23T03:47:49;7.60;99.90
7016;DHT22;3548;48.402;9.990;2023-02-23T03:50:44;7.50;99.90
7016;DHT22;3548;48.402;9.990;2023-02-23T03:53:53;7.60;99.90
7016;DHT22;3548;48.402;9.990;2023-02-23T03:56:43;7.60;99.90
7016;DHT22;3548;48.402;9.990;2023-02-23T03:59:32;7.60;99.90
7016;DHT22;3548;48.402;9.990;2023-02-23T04:02:19;7.60;99.90
7016;DHT22;3548;48.402;9.990;2023-02-23T04:05:09;7.60;99.90
7016;DHT22;3548;48.402;9.990;2023-02-23T04:07:57;7.60;99.90
7016;DHT22;3548;48.402;9.990;2023-02-23T04:10:50;7.70;99.90
7016;DHT22;3548;48.402;9.990;2023-02-23T04:13:39;7.70;99.90
7016;DHT22;3548;48.402;9.990;2023-02-23T04:16:08;7.70;99.90
7016;DHT22;3548;48.402;9.990;2023-02-23T04:18:38;7.70;99.90
7016;DHT22;3548;48.402;9.990;2023-02-23T04:21:05;7.70;99.90
7016;DHT22;3548;48.402;9.990;2023-02-23T04:23:31;7.70;99.90
7016;DHT22;3548;48.402;9.990;2023-02-23T04:25:57;7.70;99.90
7016;DHT22;3548;48.402;9.990;2023-02-23T04:28:24;7.70;99.90
7016;DHT22;3548;48.402;9.990;2023-02-23T04:30:50;7.70;99.90
7016;DHT22;3548;48.402;9.990;2023-02-23T04:33:20;7.70;99.90
7016;DHT22;3548;48.402;9.990;2023-02-23T04:35:46;7.70;99.90
7016;DHT22;3548;48.402;9.990;2023-02-23T04:38:12;7.70;99.90
7016;DHT22;3548;48.402;9.990;2023-02-23T04:40:38;7.70;99.90
7016;DHT22;3548;48.402;9.990;2023-02-23T04:43:03;7.80;99.90
7016;DHT22;3548;48.402;9.990;2023-02-23T04:45:29;7.80;99.90
7016;DHT22;3548;48.402;9.990;2023-02-23T04:47:54;7.80;99.90
7016;DHT22;3548;48.402;9.990;2023-02-23T04:50:20;7.80;99.90
7016;DHT22;3548;48.402;9.990;2023-02-23T04:52:47;7.80;99.90
7016;DHT22;3548;48.402;9.990;2023-02-23T04:55:20;7.70;99.90
7016;DHT22;3548;48.402;9.990;2023-02-23T04:57:46;7.70;99.90
7016;DHT22;3548;48.402;9.990;2023-02-23T05:00:12;7.70;99.90
7016;DHT22;3548;48.402;9.990;2023-02-23T05:02:38;7.70;99.90
7016;DHT22;3548;48.402;9.990;2023-02-23T05:05:04;7.70;99.90
7016;DHT22;3548;48.402;9.990;2023-02-23T05:07:30;7.70;99.90
7016;DHT22;3548;48.402;9.990;2023-02-23T05:09:55;7.60;99.90
7016;DHT22;3548;48.402;9.990;2023-02-23T05:12:21;7.60;99.90
7016;DHT22;3548;48.402;9.990;2023-02-23T05:14:46;7.60;99.90
7016;DHT22;3548;48.402;9.990;2023-02-23T05:17:12;7.60;99.90
7016;DHT22;3548;48.402;9.990;2023-02-23T05:19:37;7.60;99.90
7016;DHT22;3548;48.402;9.990;2023-02-23T05:22:03;7.60;99.90
7016;DHT22;3548;48.402;9.990;2023-02-23T05:24:29;7.60;99.90
7016;DHT22;3548;48.402;9.990;2023-02-23T05:26:54;7.60;99.90
7016;DHT22;3548;48.402;9.990;2023-02-23T05:29:20;7.50;99.90
7016;DHT22;3548;48.402;9.990;2023-02-23T05:31:45;7.60;99.90
7016;DHT22;3548;48.402;9.990;2023-02-23T05:34:13;7.60;99.90
7016;DHT22;3548;48.402;9.990;2023-02-23T05:36:41;7.50;99.90
7016;DHT22;3548;48.402;9.990;2023-02-23T05:39:06;7.60;99.90
7016;DHT22;3548;48.402;9.990;2023-02-23T05:41:32;7.60;99.90
7016;DHT22;3548;48.402;9.990;2023-02-23T05:43:58;7.60;99.90
7016;DHT22;3548;48.402;9.990;2023-02-23T05:46:25;7.50;99.90
7016;DHT22;3548;48.402;9.990;2023-02-23T05:48:58;7.60;99.90
7016;DHT22;3548;48.402;9.990;2023-02-23T05:51:24;7.60;99.90
7016;DHT22;3548;48.402;9.990;2023-02-23T05:53:50;7.50;99.90
7016;DHT22;3548;48.402;9.990;2023-02-23T05:56:16;7.50;99.90
7016;DHT22;3548;48.402;9.990;2023-02-23T05:58:45;7.50;99.90
7016;DHT22;3548;48.402;9.990;2023-02-23T06:01:11;7.50;99.90
7016;DHT22;3548;48.402;9.990;2023-02-23T06:03:37;7.50;99.90
7016;DHT22;3548;48.402;9.990;2023-02-23T06:06:02;7.50;99.90
7016;DHT22;3548;48.402;9.990;2023-02-23T06:08:28;7.50;99.90
7016;DHT22;3548;48.402;9.990;2023-02-23T06:10:53;7.50;99.90
7016;DHT22;3548;48.402;9.990;2023-02-23T06:13:19;7.50;99.90
7016;DHT22;3548;48.402;9.990;2023-02-23T06:15:45;7.50;99.90
7016;DHT22;3548;48.402;9.990;2023-02-23T06:18:11;7.50;99.90
7016;DHT22;3548;48.402;9.990;2023-02-23T06:20:37;7.50;99.90
7016;DHT22;3548;48.402;9.990;2023-02-23T06:23:03;7.50;99.90
7016;DHT22;3548;48.402;9.990;2023-02-23T06:25:29;7.50;99.90
7016;DHT22;3548;48.402;9.990;2023-02-23T06:27:55;7.50;99.90
7016;DHT22;3548;48.402;9.990;2023-02-23T06:30:21;7.60;99.90
7016;DHT22;3548;48.402;9.990;2023-02-23T06:32:47;7.60;99.90
7016;DHT22;3548;48.402;9.990;2023-02-23T06:35:12;7.70;99.90
7016;DHT22;3548;48.402;9.990;2023-02-23T06:37:38;7.70;99.90
7016;DHT22;3548;48.402;9.990;2023-02-23T06:40:05;7.80;99.90
7016;DHT22;3548;48.402;9.990;2023-02-23T06:42:31;7.80;99.90
7016;DHT22;3548;48.402;9.990;2023-02-23T06:44:56;7.80;99.90
7016;DHT22;3548;48.402;9.990;2023-02-23T06:47:22;7.90;99.90
7016;DHT22;3548;48.402;9.990;2023-02-23T06:49:47;7.90;99.90
7016;DHT22;3548;48.402;9.990;2023-02-23T06:52:13;7.90;99.90
7016;DHT22;3548;48.402;9.990;2023-02-23T06:54:40;8.00;99.90
7016;DHT22;3548;48.402;9.990;2023-02-23T06:57:06;8.00;99.90
7016;DHT22;3548;48.402;9.990;2023-02-23T06:59:32;8.00;99.90
7016;DHT22;3548;48.402;9.990;2023-02-23T07:01:58;8.00;99.90
7016;DHT22;3548;48.402;9.990;2023-02-23T07:04:23;8.00;99.90
7016;DHT22;3548;48.402;9.990;2023-02-23T07:06:50;8.10;99.90
7016;DHT22;3548;48.402;9.990;2023-02-23T07:09:16;8.10;99.90
7016;DHT22;3548;48.402;9.990;2023-02-23T07:11:41;8.10;99.90
7016;DHT22;3548;48.402;9.990;2023-02-23T07:14:10;8.10;99.90
7016;DHT22;3548;48.402;9.990;2023-02-23T07:16:36;8.10;99.90
7016;DHT22;3548;48.402;9.990;2023-02-23T07:19:02;8.10;99.90
7016;DHT22;3548;48.402;9.990;2023-02-23T07:21:28;8.20;99.90
7016;DHT22;3548;48.402;9.990;2023-02-23T07:23:54;8.20;99.90
7016;DHT22;3548;48.402;9.990;2023-02-23T07:26:19;8.20;99.90
7016;DHT22;3548;48.402;9.990;2023-02-23T07:28:46;8.30;99.90
7016;DHT22;3548;48.402;9.990;2023-02-23T07:31:12;8.40;99.90
7016;DHT22;3548;48.402;9.990;2023-02-23T07:33:37;8.40;99.90
7016;DHT22;3548;48.402;9.990;2023-02-23T07:36:03;8.50;99.90
7016;DHT22;3548;48.402;9.990;2023-02-23T07:38:28;8.50;99.90
7016;DHT22;3548;48.402;9.990;2023-02-23T07:40:54;8.50;99.90
7016;DHT22;3548;48.402;9.990;2023-02-23T07:43:20;8.60;99.90
7016;DHT22;3548;48.402;9.990;2023-02-23T07:45:47;8.60;99.90
7016;DHT22;3548;48.402;9.990;2023-02-23T07:48:13;8.70;99.90
7016;DHT22;3548;48.402;9.990;2023-02-23T07:50:40;8.80;99.90
7016;DHT22;3548;48.402;9.990;2023-02-23T07:53:05;8.80;99.90
7016;DHT22;3548;48.402;9.990;2023-02-23T07:55:31;8.90;99.90
7016;DHT22;3548;48.402;9.990;2023-02-23T07:57:56;9.00;99.90
7016;DHT22;3548;48.402;9.990;2023-02-23T08:00:22;9.00;99.90
7016;DHT22;3548;48.402;9.990;2023-02-23T08:02:49;9.10;99.90
7016;DHT22;3548;48.402;9.990;2023-02-23T08:05:15;9.20;99.90
7016;DHT22;3548;48.402;9.990;2023-02-23T08:07:41;9.20;99.90
7016;DHT22;3548;48.402;9.990;2023-02-23T08:10:07;9.30;99.90
7016;DHT22;3548;48.402;9.990;2023-02-23T08:12:32;9.30;99.90
7016;DHT22;3548;48.402;9.990;2023-02-23T08:14:58;9.30;99.90
7016;DHT22;3548;48.402;9.990;2023-02-23T08:17:24;9.40;99.90
7016;DHT22;3548;48.402;9.990;2023-02-23T08:19:50;9.30;99.90
7016;DHT22;3548;48.402;9.990;2023-02-23T08:22:15;9.30;99.90
7016;DHT22;3548;48.402;9.990;2023-02-23T08:24:41;9.30;99.90
7016;DHT22;3548;48.402;9.990;2023-02-23T08:27:06;9.20;99.90
7016;DHT22;3548;48.402;9.990;2023-02-23T08:29:32;9.20;99.90
7016;DHT22;3548;48.402;9.990;2023-02-23T08:32:03;9.20;99.90
7016;DHT22;3548;48.402;9.990;2023-02-23T08:34:29;9.20;99.90
7016;DHT22;3548;48.402;9.990;2023-02-23T08:36:54;9.30;99.90
7016;DHT22;3548;48.402;9.990;2023-02-23T08:39:20;9.30;99.90
7016;DHT22;3548;48.402;9.990;2023-02-23T08:41:45;9.40;99.90
7016;DHT22;3548;48.402;9.990;2023-02-23T08:44:11;9.40;99.90
7016;DHT22;3548;48.402;9.990;2023-02-23T08:46:37;9.30;99.90
7016;DHT22;3548;48.402;9.990;2023-02-23T08:49:02;9.20;99.90
7016;DHT22;3548;48.402;9.990;2023-02-23T08:51:30;9.30;99.90
7016;DHT22;3548;48.402;9.990;2023-02-23T08:53:56;9.30;99.90
7016;DHT22;3548;48.402;9.990;2023-02-23T08:56:21;9.30;99.90
7016;DHT22;3548;48.402;9.990;2023-02-23T08:58:49;9.30;99.90
7016;DHT22;3548;48.402;9.990;2023-02-23T09:01:17;9.20;99.90
7016;DHT22;3548;48.402;9.990;2023-02-23T09:03:43;9.30;99.90
7016;DHT22;3548;48.402;9.990;2023-02-23T09:06:11;9.30;99.90
7016;DHT22;3548;48.402;9.990;2023-02-23T09:08:37;9.30;99.90
7016;DHT22;3548;48.402;9.990;2023-02-23T09:11:04;9.30;99.90
7016;DHT22;3548;48.402;9.990;2023-02-23T09:13:30;9.30;99.90
7016;DHT22;3548;48.402;9.990;2023-02-23T09:15:55;9.40;99.90
7016;DHT22;3548;48.402;9.990;2023-02-23T09:18:21;9.50;99.90
7016;DHT22;3548;48.402;9.990;2023-02-23T09:20:48;9.50;99.90
7016;DHT22;3548;48.402;9.990;2023-02-23T09:23:14;9.60;99.90
7016;DHT22;3548;48.402;9.990;2023-02-23T09:25:41;9.70;99.90
7016;DHT22;3548;48.402;9.990;2023-02-23T09:28:16;9.80;99.90
7016;DHT22;3548;48.402;9.990;2023-02-23T09:30:43;9.90;99.90
7016;DHT22;3548;48.402;9.990;2023-02-23T09:33:10;10.00;99.90
7016;DHT22;3548;48.402;9.990;2023-02-23T09:35:36;10.10;99.90
7016;DHT22;3548;48.402;9.990;2023-02-23T09:38:03;10.20;99.90
7016;DHT22;3548;48.402;9.990;2023-02-23T09:40:43;10.30;99.90
7016;DHT22;3548;48.402;9.990;2023-02-23T09:48:34;10.70;99.90
7016;DHT22;3548;48.402;9.990;2023-02-23T09:51:00;10.70;99.90
7016;DHT22;3548;48.402;9.990;2023-02-23T09:53:41;10.70;99.90
7016;DHT22;3548;48.402;9.990;2023-02-23T09:56:14;10.80;99.90
7016;DHT22;3548;48.402;9.990;2023-02-23T09:58:41;10.90;99.90
7016;DHT22;3548;48.402;9.990;2023-02-23T10:04:22;10.90;99.90
7016;DHT22;3548;48.402;9.990;2023-02-23T10:07:13;11.00;99.90
7016;DHT22;3548;48.402;9.990;2023-02-23T10:15:37;11.20;99.90
7016;DHT22;3548;48.402;9.990;2023-02-23T10:21:33;11.30;99.90
7016;DHT22;3548;48.402;9.990;2023-02-23T10:27:22;11.40;99.90
7016;DHT22;3548;48.402;9.990;2023-02-23T10:29:57;11.50;99.90
7016;DHT22;3548;48.402;9.990;2023-02-23T10:35:27;11.60;99.90
7016;DHT22;3548;48.402;9.990;2023-02-23T10:37:54;11.60;99.90
7016;DHT22;3548;48.402;9.990;2023-02-23T10:40:25;11.70;99.90
7016;DHT22;3548;48.402;9.990;2023-02-23T10:42:53;11.70;99.90
7016;DHT22;3548;48.402;9.990;2023-02-23T10:45:23;11.80;99.90
7016;DHT22;3548;48.402;9.990;2023-02-23T10:50:23;12.00;99.90
7016;DHT22;3548;48.402;9.990;2023-02-23T10:52:59;12.10;99.90
7016;DHT22;3548;48.402;9.990;2023-02-23T10:55:28;12.10;99.90
7016;DHT22;3548;48.402;9.990;2023-02-23T11:00:28;12.30;99.90
7016;DHT22;3548;48.402;9.990;2023-02-23T11:02:58;12.40;99.90
7016;DHT22;3548;48.402;9.990;2023-02-23T11:05:46;12.50;99.90
7016;DHT22;3548;48.402;9.990;2023-02-23T11:11:17;12.60;99.90
7016;DHT22;3548;48.402;9.990;2023-02-23T11:13:48;12.70;99.90
7016;DHT22;3548;48.402;9.990;2023-02-23T11:16:23;12.70;99.90
7016;DHT22;3548;48.402;9.990;2023-02-23T11:21:33;12.90;99.90
7016;DHT22;3548;48.402;9.990;2023-02-23T11:24:21;13.00;99.90
7016;DHT22;3548;48.402;9.990;2023-02-23T11:26:51;13.10;99.90
7016;DHT22;3548;48.402;9.990;2023-02-23T11:32:30;13.20;99.90
7016;DHT22;3548;48.402;9.990;2023-02-23T11:37:45;13.20;99.90
7016;DHT22;3548;48.402;9.990;2023-02-23T11:40:27;13.30;99.90
7016;DHT22;3548;48.402;9.990;2023-02-23T11:42:57;13.30;99.90
7016;DHT22;3548;48.402;9.990;2023-02-23T11:45:49;13.30;99.90
7016;DHT22;3548;48.402;9.990;2023-02-23T11:48:52;13.30;99.90
7016;DHT22;3548;48.402;9.990;2023-02-23T11:51:39;13.40;99.90
7016;DHT22;3548;48.402;9.990;2023-02-23T11:54:07;13.40;99.90
7016;DHT22;3548;48.402;9.990;2023-02-23T11:56:47;13.50;99.90
7016;DHT22;3548;48.402;9.990;2023-02-23T11:59:16;13.50;99.90
7016;DHT22;3548;48.402;9.990;2023-02-23T12:01:47;13.60;99.90
7016;DHT22;3548;48.402;9.990;2023-02-23T12:07:24;13.60;99.90
7016;DHT22;3548;48.402;9.990;2023-02-23T12:10:12;13.70;99.90
7016;DHT22;3548;48.402;9.990;2023-02-23T12:13:15;13.70;99.90
7016;DHT22;3548;48.402;9.990;2023-02-23T12:15:52;13.80;99.90
7016;DHT22;3548;48.402;9.990;2023-02-23T12:18:48;13.90;99.90
7016;DHT22;3548;48.402;9.990;2023-02-23T12:24:22;14.20;99.90
7016;DHT22;3548;48.402;9.990;2023-02-23T12:27:05;14.10;99.90
7016;DHT22;3548;48.402;9.990;2023-02-23T12:32:27;14.20;99.90
7016;DHT22;3548;48.402;9.990;2023-02-23T12:34:58;14.10;99.90
7016;DHT22;3548;48.402;9.990;2023-02-23T12:37:37;14.10;99.90
7016;DHT22;3548;48.402;9.990;2023-02-23T12:40:13;14.10;99.90
7016;DHT22;3548;48.402;9.990;2023-02-23T12:50:59;14.20;99.90
7016;DHT22;3548;48.402;9.990;2023-02-23T12:53:40;14.30;99.90
7016;DHT22;3548;48.402;9.990;2023-02-23T13:01:36;14.20;99.90
7016;DHT22;3548;48.402;9.990;2023-02-23T13:07:11;14.30;99.90
7016;DHT22;3548;48.402;9.990;2023-02-23T13:10:21;14.50;99.90
7016;DHT22;3548;48.402;9.990;2023-02-23T13:16:16;14.80;99.90
7016;DHT22;3548;48.402;9.990;2023-02-23T13:18:51;14.80;99.90
7016;DHT22;3548;48.402;9.990;2023-02-23T13:21:36;14.70;99.90
7016;DHT22;3548;48.402;9.990;2023-02-23T13:24:19;14.70;99.90
7016;DHT22;3548;48.402;9.990;2023-02-23T13:29:52;14.70;99.90
7016;DHT22;3548;48.402;9.990;2023-02-23T13:32:21;14.60;99.90
7016;DHT22;3548;48.402;9.990;2023-02-23T13:34:52;14.60;99.90
7016;DHT22;3548;48.402;9.990;2023-02-23T13:37:24;14.50;99.90
7016;DHT22;3548;48.402;9.990;2023-02-23T13:39:57;14.40;99.90
7016;DHT22;3548;48.402;9.990;2023-02-23T13:42:47;14.30;99.90
7016;DHT22;3548;48.402;9.990;2023-02-23T13:45:49;14.20;99.90
7016;DHT22;3548;48.402;9.990;2023-02-23T13:56:24;14.20;99.90
7016;DHT22;3548;48.402;9.990;2023-02-23T13:58:57;14.20;99.90
7016;DHT22;3548;48.402;9.990;2023-02-23T14:01:47;14.20;99.90
7016;DHT22;3548;48.402;9.990;2023-02-23T14:04:25;14.10;99.90
7016;DHT22;3548;48.402;9.990;2023-02-23T14:07:20;14.00;99.90
7016;DHT22;3548;48.402;9.990;2023-02-23T14:09:54;14.00;99.90
7016;DHT22;3548;48.402;9.990;2023-02-23T14:12:39;14.10;99.90
7016;DHT22;3548;48.402;9.990;2023-02-23T14:18:03;14.40;99.90
7016;DHT22;3548;48.402;9.990;2023-02-23T14:33:49;14.20;99.90
7016;DHT22;3548;48.402;9.990;2023-02-23T14:39:01;13.90;99.90
7016;DHT22;3548;48.402;9.990;2023-02-23T14:41:48;13.70;99.90
7016;DHT22;3548;48.402;9.990;2023-02-23T14:44:28;13.40;99.90
7016;DHT22;3548;48.402;9.990;2023-02-23T14:47:15;13.10;99.90
7016;DHT22;3548;48.402;9.990;2023-02-23T14:49:44;12.90;99.90
7016;DHT22;3548;48.402;9.990;2023-02-23T14:52:35;12.80;99.90
7016;DHT22;3548;48.402;9.990;2023-02-23T14:55:27;12.60;99.90
7016;DHT22;3548;48.402;9.990;2023-02-23T14:57:53;12.30;99.90
7016;DHT22;3548;48.402;9.990;2023-02-23T15:00:28;12.10;99.90
7016;DHT22;3548;48.402;9.990;2023-02-23T15:03:08;11.70;99.90
7016;DHT22;3548;48.402;9.990;2023-02-23T15:05:43;11.40;99.90
7016;DHT22;3548;48.402;9.990;2023-02-23T15:08:13;11.20;99.90
7016;DHT22;3548;48.402;9.990;2023-02-23T15:10:45;11.00;99.90
7016;DHT22;3548;48.402;9.990;2023-02-23T15:13:34;10.80;99.90
7016;DHT22;3548;48.402;9.990;2023-02-23T15:16:11;10.60;99.90
7016;DHT22;3548;48.402;9.990;2023-02-23T15:21:56;10.30;99.90
7016;DHT22;3548;48.402;9.990;2023-02-23T15:24:31;10.20;99.90
7016;DHT22;3548;48.402;9.990;2023-02-23T15:26:59;10.10;99.90
7016;DHT22;3548;48.402;9.990;2023-02-23T15:29:30;10.00;99.90
7016;DHT22;3548;48.402;9.990;2023-02-23T15:32:10;9.90;99.90
7016;DHT22;3548;48.402;9.990;2023-02-23T15:34:39;9.90;99.90
7016;DHT22;3548;48.402;9.990;2023-02-23T15:37:28;9.90;99.90
7016;DHT22;3548;48.402;9.990;2023-02-23T15:40:00;9.90;99.90
7016;DHT22;3548;48.402;9.990;2023-02-23T15:42:36;9.90;99.90
7016;DHT22;3548;48.402;9.990;2023-02-23T15:45:12;9.90;99.90
7016;DHT22;3548;48.402;9.990;2023-02-23T15:47:39;9.80;99.90
7016;DHT22;3548;48.402;9.990;2023-02-23T15:50:13;9.80;99.90
7016;DHT22;3548;48.402;9.990;2023-02-23T15:52:46;9.70;99.90
7016;DHT22;3548;48.402;9.990;2023-02-23T15:55:19;9.70;99.90
7016;DHT22;3548;48.402;9.990;2023-02-23T15:57:53;9.70;99.90
7016;DHT22;3548;48.402;9.990;2023-02-23T16:00:26;9.70;99.90
7016;DHT22;3548;48.402;9.990;2023-02-23T16:02:58;9.70;99.90
7016;DHT22;3548;48.402;9.990;2023-02-23T16:05:24;9.70;99.90
7016;DHT22;3548;48.402;9.990;2023-02-23T16:08:02;9.80;99.90
7016;DHT22;3548;48.402;9.990;2023-02-23T16:10:39;9.80;99.90
7016;DHT22;3548;48.402;9.990;2023-02-23T16:13:06;9.90;99.90
7016;DHT22;3548;48.402;9.990;2023-02-23T16:15:33;9.90;99.90
7016;DHT22;3548;48.402;9.990;2023-02-23T16:18:11;9.90;99.90
7016;DHT22;3548;48.402;9.990;2023-02-23T16:20:42;9.90;99.90
7016;DHT22;3548;48.402;9.990;2023-02-23T16:23:17;10.00;99.90
7016;DHT22;3548;48.402;9.990;2023-02-23T16:25:52;9.90;99.90
7016;DHT22;3548;48.402;9.990;2023-02-23T16:28:20;10.00;99.90
7016;DHT22;3548;48.402;9.990;2023-02-23T16:30:56;10.00;99.90
7016;DHT22;3548;48.402;9.990;2023-02-23T16:33:43;10.00;99.90
7016;DHT22;3548;48.402;9.990;2023-02-23T16:38:37;10.00;99.90
7016;DHT22;3548;48.402;9.990;2023-02-23T16:41:04;10.00;99.90
7016;DHT22;3548;48.402;9.990;2023-02-23T16:43:32;10.00;99.90
7016;DHT22;3548;48.402;9.990;2023-02-23T16:45:59;10.00;99.90
7016;DHT22;3548;48.402;9.990;2023-02-23T16:48:26;10.00;99.90
7016;DHT22;3548;48.402;9.990;2023-02-23T16:50:52;10.00;99.90
7016;DHT22;3548;48.402;9.990;2023-02-23T16:53:18;10.00;99.90
7016;DHT22;3548;48.402;9.990;2023-02-23T16:55:51;9.90;99.90
7016;DHT22;3548;48.402;9.990;2023-02-23T16:58:20;9.90;99.90
7016;DHT22;3548;48.402;9.990;2023-02-23T17:00:46;9.80;99.90
7016;DHT22;3548;48.402;9.990;2023-02-23T17:03:23;9.80;99.90
7016;DHT22;3548;48.402;9.990;2023-02-23T17:05:50;9.80;99.90
7016;DHT22;3548;48.402;9.990;2023-02-23T17:08:16;9.70;99.90
7016;DHT22;3548;48.402;9.990;2023-02-23T17:10:44;9.70;99.90
7016;DHT22;3548;48.402;9.990;2023-02-23T17:13:25;9.70;99.90
7016;DHT22;3548;48.402;9.990;2023-02-23T17:15:53;9.60;99.90
7016;DHT22;3548;48.402;9.990;2023-02-23T17:18:22;9.60;99.90
7016;DHT22;3548;48.402;9.990;2023-02-23T17:20:52;9.60;99.90
7016;DHT22;3548;48.402;9.990;2023-02-23T17:23:20;9.60;99.90
7016;DHT22;3548;48.402;9.990;2023-02-23T17:25:46;9.60;99.90
7016;DHT22;3548;48.402;9.990;2023-02-23T17:28:12;9.50;99.90
7016;DHT22;3548;48.402;9.990;2023-02-23T17:30:37;9.60;99.90
7016;DHT22;3548;48.402;9.990;2023-02-23T17:33:08;9.60;99.90
7016;DHT22;3548;48.402;9.990;2023-02-23T17:35:34;9.60;99.90
7016;DHT22;3548;48.402;9.990;2023-02-23T17:38:05;9.60;99.90
7016;DHT22;3548;48.402;9.990;2023-02-23T17:40:32;9.60;99.90
7016;DHT22;3548;48.402;9.990;2023-02-23T17:43:02;9.60;99.90
7016;DHT22;3548;48.402;9.990;2023-02-23T17:45:29;9.60;99.90
7016;DHT22;3548;48.402;9.990;2023-02-23T17:47:56;9.60;99.90
7016;DHT22;3548;48.402;9.990;2023-02-23T17:50:21;9.60;99.90
7016;DHT22;3548;48.402;9.990;2023-02-23T17:52:49;9.60;99.90
7016;DHT22;3548;48.402;9.990;2023-02-23T17:55:16;9.60;99.90
7016;DHT22;3548;48.402;9.990;2023-02-23T17:57:42;9.70;99.90
7016;DHT22;3548;48.402;9.990;2023-02-23T18:00:11;9.60;99.90
7016;DHT22;3548;48.402;9.990;2023-02-23T18:02:41;9.60;99.90
7016;DHT22;3548;48.402;9.990;2023-02-23T18:05:08;9.60;99.90
7016;DHT22;3548;48.402;9.990;2023-02-23T18:07:34;9.60;99.90
7016;DHT22;3548;48.402;9.990;2023-02-23T18:09:59;9.60;99.90
7016;DHT22;3548;48.402;9.990;2023-02-23T18:12:25;9.70;99.90
7016;DHT22;3548;48.402;9.990;2023-02-23T18:14:50;9.60;99.90
7016;DHT22;3548;48.402;9.990;2023-02-23T18:17:16;9.60;99.90
7016;DHT22;3548;48.402;9.990;2023-02-23T18:19:42;9.60;99.90
7016;DHT22;3548;48.402;9.990;2023-02-23T18:22:08;9.60;99.90
7016;DHT22;3548;48.402;9.990;2023-02-23T18:24:34;9.60;99.90
7016;DHT22;3548;48.402;9.990;2023-02-23T18:27:00;9.60;99.90
7016;DHT22;3548;48.402;9.990;2023-02-23T18:29:28;9.50;99.90
7016;DHT22;3548;48.402;9.990;2023-02-23T18:31:55;9.50;99.90
7016;DHT22;3548;48.402;9.990;2023-02-23T18:34:22;9.50;99.90
7016;DHT22;3548;48.402;9.990;2023-02-23T18:36:48;9.50;99.90
7016;DHT22;3548;48.402;9.990;2023-02-23T18:39:13;9.50;99.90
7016;DHT22;3548;48.402;9.990;2023-02-23T18:41:39;9.50;99.90
7016;DHT22;3548;48.402;9.990;2023-02-23T18:44:09;9.50;99.90
7016;DHT22;3548;48.402;9.990;2023-02-23T18:46:35;9.50;99.90
7016;DHT22;3548;48.402;9.990;2023-02-23T18:49:00;9.50;99.90
7016;DHT22;3548;48.402;9.990;2023-02-23T18:51:26;9.50;99.90
7016;DHT22;3548;48.402;9.990;2023-02-23T18:53:53;9.50;99.90
7016;DHT22;3548;48.402;9.990;2023-02-23T18:56:21;9.50;99.90